sensor_id;sensor_type;location;lat;lon;timestamp;P1;durP1;ratioP1;P2;durP2;ratioP2
48215;SDS011;34005;48.844;10.098;2023-03-12T00:02:14;8.18;;;3.55;;
48215;SDS011;34005;48.844;10.098;2023-03-12T00:04:42;8.70;;;3.78;;
48215;SDS011;34005;48.844;10.098;2023-03-12T00:07:10;11.15;;;4.35;;
48215;SDS011;34005;48.844;10.098;2023-03-12T00:09:38;4.40;;;3.20;;
48215;SDS011;34005;48.844;10.098;2023-03-12T00:12:05;8.10;;;3.88;;
48215;SDS011;34005;48.844;10.098;2023-03-12T00:14:34;5.35;;;3.78;;
48215;SDS011;34005;48.844;10.098;2023-03-12T00:17:02;5.65;;;3.85;;
48215;SDS011;34005;48.844;10.098;2023-03-12T00:19:30;7.10;;;3.55;;
48215;SDS011;34005;48.844;10.098;2023-03-12T00:21:59;7.90;;;3.50;;
48215;SDS011;34005;48.844;10.098;2023-03-12T00:24:26;6.63;;;3.53;;
48215;SDS011;34005;48.844;10.098;2023-03-12T00:26:54;5.03;;;3.28;;
48215;SDS011;34005;48.844;10.098;2023-03-12T00:29:21;6.63;;;3.60;;
48215;SDS011;34005;48.844;10.098;2023-03-12T00:31:49;4.55;;;3.00;;
48215;SDS011;34005;48.844;10.098;2023-03-12T00:34:17;6.03;;;3.05;;
48215;SDS011;34005;48.844;10.098;2023-03-12T00:36:44;5.15;;;3.28;;
48215;SDS011;34005;48.844;10.098;2023-03-12T00:39:13;5.20;;;3.00;;
48215;SDS011;34005;48.844;10.098;2023-03-12T00:41:41;6.93;;;3.30;;
48215;SDS011;34005;48.844;10.098;2023-03-12T00:44:08;7.30;;;3.17;;
48215;SDS011;34005;48.844;10.098;2023-03-12T00:46:36;6.78;;;3.15;;
48215;SDS011;34005;48.844;10.098;2023-03-12T00:49:03;9.70;;;3.22;;
48215;SDS011;34005;48.844;10.098;2023-03-12T00:51:31;6.35;;;3.83;;
48215;SDS011;34005;48.844;10.098;2023-03-12T00:53:59;5.97;;;2.90;;
48215;SDS011;34005;48.844;10.098;2023-03-12T00:56:28;7.72;;;3.00;;
48215;SDS011;34005;48.844;10.098;2023-03-12T00:58:55;4.75;;;3.30;;
48215;SDS011;34005;48.844;10.098;2023-03-12T01:01:23;3.63;;;2.92;;
48215;SDS011;34005;48.844;10.098;2023-03-12T01:03:52;3.75;;;2.70;;
48215;SDS011;34005;48.844;10.098;2023-03-12T01:06:21;7.63;;;3.42;;
48215;SDS011;34005;48.844;10.098;2023-03-12T01:08:48;8.85;;;3.80;;
48215;SDS011;34005;48.844;10.098;2023-03-12T01:11:16;4.75;;;2.95;;
48215;SDS011;34005;48.844;10.098;2023-03-12T01:13:47;6.50;;;3.30;;
48215;SDS011;34005;48.844;10.098;2023-03-12T01:16:15;5.70;;;3.38;;
48215;SDS011;34005;48.844;10.098;2023-03-12T01:18:42;4.40;;;3.20;;
48215;SDS011;34005;48.844;10.098;2023-03-12T01:21:10;5.03;;;3.03;;
48215;SDS011;34005;48.844;10.098;2023-03-12T01:23:38;7.55;;;3.28;;
48215;SDS011;34005;48.844;10.098;2023-03-12T01:26:05;7.88;;;3.55;;
48215;SDS011;34005;48.844;10.098;2023-03-12T01:28:33;4.25;;;2.83;;
48215;SDS011;34005;48.844;10.098;2023-03-12T01:31:06;5.00;;;2.97;;
48215;SDS011;34005;48.844;10.098;2023-03-12T01:33:34;4.72;;;2.90;;
48215;SDS011;34005;48.844;10.098;2023-03-12T01:36:01;4.30;;;3.05;;
48215;SDS011;34005;48.844;10.098;2023-03-12T01:38:29;4.53;;;2.80;;
48215;SDS011;34005;48.844;10.098;2023-03-12T01:40:57;7.68;;;3.40;;
48215;SDS011;34005;48.844;10.098;2023-03-12T01:43:26;7.53;;;3.28;;
48215;SDS011;34005;48.844;10.098;2023-03-12T01:46:01;5.28;;;3.08;;
48215;SDS011;34005;48.844;10.098;2023-03-12T01:48:35;13.25;;;5.20;;
48215;SDS011;34005;48.844;10.098;2023-03-12T01:51:06;18.67;;;7.47;;
48215;SDS011;34005;48.844;10.098;2023-03-12T01:53:36;18.40;;;8.25;;
48215;SDS011;34005;48.844;10.098;2023-03-12T01:56:05;18.20;;;7.40;;
48215;SDS011;34005;48.844;10.098;2023-03-12T01:58:34;12.90;;;6.07;;
48215;SDS011;34005;48.844;10.098;2023-03-12T02:01:04;17.13;;;7.80;;
48215;SDS011;34005;48.844;10.098;2023-03-12T02:03:34;10.52;;;5.60;;
48215;SDS011;34005;48.844;10.098;2023-03-12T02:06:02;9.70;;;5.65;;
48215;SDS011;34005;48.844;10.098;2023-03-12T02:11:03;7.82;;;3.92;;
48215;SDS011;34005;48.844;10.098;2023-03-12T02:13:31;10.10;;;4.28;;
48215;SDS011;34005;48.844;10.098;2023-03-12T02:15:59;7.22;;;3.35;;
48215;SDS011;34005;48.844;10.098;2023-03-12T02:18:27;6.05;;;3.55;;
48215;SDS011;34005;48.844;10.098;2023-03-12T02:20:58;5.07;;;2.78;;
48215;SDS011;34005;48.844;10.098;2023-03-12T02:23:32;8.23;;;3.20;;
48215;SDS011;34005;48.844;10.098;2023-03-12T02:26:07;5.18;;;2.95;;
48215;SDS011;34005;48.844;10.098;2023-03-12T02:28:37;5.40;;;2.83;;
48215;SDS011;34005;48.844;10.098;2023-03-12T02:31:09;5.90;;;3.00;;
48215;SDS011;34005;48.844;10.098;2023-03-12T02:33:40;5.60;;;3.20;;
48215;SDS011;34005;48.844;10.098;2023-03-12T02:36:08;7.32;;;3.03;;
48215;SDS011;34005;48.844;10.098;2023-03-12T02:38:37;6.50;;;2.92;;
48215;SDS011;34005;48.844;10.098;2023-03-12T02:41:11;5.60;;;2.85;;
48215;SDS011;34005;48.844;10.098;2023-03-12T02:43:41;4.88;;;2.80;;
48215;SDS011;34005;48.844;10.098;2023-03-12T02:46:12;3.40;;;2.40;;
48215;SDS011;34005;48.844;10.098;2023-03-12T02:48:40;4.40;;;2.55;;
48215;SDS011;34005;48.844;10.098;2023-03-12T02:51:08;4.88;;;2.28;;
48215;SDS011;34005;48.844;10.098;2023-03-12T02:53:36;5.20;;;2.30;;
48215;SDS011;34005;48.844;10.098;2023-03-12T02:56:04;2.65;;;2.35;;
48215;SDS011;34005;48.844;10.098;2023-03-12T02:58:34;3.88;;;2.55;;
48215;SDS011;34005;48.844;10.098;2023-03-12T03:01:02;4.43;;;3.85;;
48215;SDS011;34005;48.844;10.098;2023-03-12T03:03:30;3.58;;;2.35;;
48215;SDS011;34005;48.844;10.098;2023-03-12T03:05:58;5.85;;;2.70;;
48215;SDS011;34005;48.844;10.098;2023-03-12T03:08:25;2.78;;;2.20;;
48215;SDS011;34005;48.844;10.098;2023-03-12T03:10:53;5.40;;;2.53;;
48215;SDS011;34005;48.844;10.098;2023-03-12T03:13:20;7.05;;;2.47;;
48215;SDS011;34005;48.844;10.098;2023-03-12T03:15:49;4.93;;;2.22;;
48215;SDS011;34005;48.844;10.098;2023-03-12T03:18:17;4.68;;;2.15;;
48215;SDS011;34005;48.844;10.098;2023-03-12T03:20:44;3.58;;;2.30;;
48215;SDS011;34005;48.844;10.098;2023-03-12T03:23:12;4.40;;;2.30;;
48215;SDS011;34005;48.844;10.098;2023-03-12T03:25:39;4.70;;;2.30;;
48215;SDS011;34005;48.844;10.098;2023-03-12T03:28:07;6.25;;;2.83;;
48215;SDS011;34005;48.844;10.098;2023-03-12T03:30:34;4.20;;;2.47;;
48215;SDS011;34005;48.844;10.098;2023-03-12T03:33:03;3.58;;;2.30;;
48215;SDS011;34005;48.844;10.098;2023-03-12T03:35:32;3.25;;;2.22;;
48215;SDS011;34005;48.844;10.098;2023-03-12T03:38:00;2.95;;;2.40;;
48215;SDS011;34005;48.844;10.098;2023-03-12T03:40:27;3.22;;;2.22;;
48215;SDS011;34005;48.844;10.098;2023-03-12T03:42:55;5.03;;;2.05;;
48215;SDS011;34005;48.844;10.098;2023-03-12T03:45:22;3.38;;;1.80;;
48215;SDS011;34005;48.844;10.098;2023-03-12T03:47:52;3.13;;;1.98;;
48215;SDS011;34005;48.844;10.098;2023-03-12T03:50:21;4.05;;;2.50;;
48215;SDS011;34005;48.844;10.098;2023-03-12T03:52:48;5.10;;;1.92;;
48215;SDS011;34005;48.844;10.098;2023-03-12T03:55:16;3.88;;;1.90;;
48215;SDS011;34005;48.844;10.098;2023-03-12T03:57:44;3.45;;;2.13;;
48215;SDS011;34005;48.844;10.098;2023-03-12T04:00:12;3.72;;;1.95;;
48215;SDS011;34005;48.844;10.098;2023-03-12T04:02:43;5.20;;;1.92;;
48215;SDS011;34005;48.844;10.098;2023-03-12T04:05:10;4.75;;;2.63;;
48215;SDS011;34005;48.844;10.098;2023-03-12T04:07:39;7.85;;;2.60;;
48215;SDS011;34005;48.844;10.098;2023-03-12T04:10:08;6.88;;;3.15;;
48215;SDS011;34005;48.844;10.098;2023-03-12T04:12:36;4.43;;;2.17;;
48215;SDS011;34005;48.844;10.098;2023-03-12T04:15:04;3.63;;;1.90;;
48215;SDS011;34005;48.844;10.098;2023-03-12T04:17:32;3.03;;;1.85;;
48215;SDS011;34005;48.844;10.098;2023-03-12T04:20:00;2.35;;;1.98;;
48215;SDS011;34005;48.844;10.098;2023-03-12T04:22:28;4.60;;;2.20;;
48215;SDS011;34005;48.844;10.098;2023-03-12T04:24:56;6.90;;;2.22;;
48215;SDS011;34005;48.844;10.098;2023-03-12T04:27:24;6.30;;;2.65;;
48215;SDS011;34005;48.844;10.098;2023-03-12T04:29:55;4.43;;;2.47;;
48215;SDS011;34005;48.844;10.098;2023-03-12T04:32:24;4.03;;;2.90;;
48215;SDS011;34005;48.844;10.098;2023-03-12T04:34:55;6.88;;;2.80;;
48215;SDS011;34005;48.844;10.098;2023-03-12T04:37:23;2.90;;;2.45;;
48215;SDS011;34005;48.844;10.098;2023-03-12T04:39:53;5.63;;;2.35;;
48215;SDS011;34005;48.844;10.098;2023-03-12T04:42:25;5.38;;;2.58;;
48215;SDS011;34005;48.844;10.098;2023-03-12T04:44:54;4.07;;;2.40;;
48215;SDS011;34005;48.844;10.098;2023-03-12T04:47:22;4.72;;;2.55;;
48215;SDS011;34005;48.844;10.098;2023-03-12T04:49:55;5.50;;;3.03;;
48215;SDS011;34005;48.844;10.098;2023-03-12T04:52:26;6.05;;;2.03;;
48215;SDS011;34005;48.844;10.098;2023-03-12T04:54:54;3.67;;;2.25;;
48215;SDS011;34005;48.844;10.098;2023-03-12T04:57:25;6.22;;;2.50;;
48215;SDS011;34005;48.844;10.098;2023-03-12T04:59:53;5.65;;;2.50;;
48215;SDS011;34005;48.844;10.098;2023-03-12T05:02:21;4.28;;;2.33;;
48215;SDS011;34005;48.844;10.098;2023-03-12T05:04:54;4.88;;;2.08;;
48215;SDS011;34005;48.844;10.098;2023-03-12T05:07:23;4.85;;;2.72;;
48215;SDS011;34005;48.844;10.098;2023-03-12T05:09:52;4.07;;;2.20;;
48215;SDS011;34005;48.844;10.098;2023-03-12T05:12:20;4.55;;;2.17;;
48215;SDS011;34005;48.844;10.098;2023-03-12T05:14:50;4.20;;;2.05;;
48215;SDS011;34005;48.844;10.098;2023-03-12T05:17:18;2.97;;;2.20;;
48215;SDS011;34005;48.844;10.098;2023-03-12T05:19:46;6.63;;;2.38;;
48215;SDS011;34005;48.844;10.098;2023-03-12T05:22:15;4.65;;;2.70;;
48215;SDS011;34005;48.844;10.098;2023-03-12T05:24:45;5.10;;;2.22;;
48215;SDS011;34005;48.844;10.098;2023-03-12T05:27:13;5.28;;;2.53;;
48215;SDS011;34005;48.844;10.098;2023-03-12T05:29:40;3.38;;;2.42;;
48215;SDS011;34005;48.844;10.098;2023-03-12T05:32:12;4.75;;;2.75;;
48215;SDS011;34005;48.844;10.098;2023-03-12T05:34:41;2.88;;;2.20;;
48215;SDS011;34005;48.844;10.098;2023-03-12T05:37:09;3.55;;;2.45;;
48215;SDS011;34005;48.844;10.098;2023-03-12T05:39:36;3.67;;;2.22;;
48215;SDS011;34005;48.844;10.098;2023-03-12T05:42:06;2.65;;;2.10;;
48215;SDS011;34005;48.844;10.098;2023-03-12T05:44:34;3.83;;;2.40;;
48215;SDS011;34005;48.844;10.098;2023-03-12T05:47:01;5.18;;;3.17;;
48215;SDS011;34005;48.844;10.098;2023-03-12T05:49:30;4.03;;;2.30;;
48215;SDS011;34005;48.844;10.098;2023-03-12T05:52:01;5.30;;;2.72;;
48215;SDS011;34005;48.844;10.098;2023-03-12T05:54:32;4.82;;;2.97;;
48215;SDS011;34005;48.844;10.098;2023-03-12T05:57:00;3.90;;;2.70;;
48215;SDS011;34005;48.844;10.098;2023-03-12T05:59:28;3.53;;;2.50;;
48215;SDS011;34005;48.844;10.098;2023-03-12T06:01:59;4.75;;;2.80;;
48215;SDS011;34005;48.844;10.098;2023-03-12T06:04:27;3.42;;;2.42;;
48215;SDS011;34005;48.844;10.098;2023-03-12T06:06:57;5.57;;;3.33;;
48215;SDS011;34005;48.844;10.098;2023-03-12T06:09:25;4.30;;;2.58;;
48215;SDS011;34005;48.844;10.098;2023-03-12T06:11:53;9.52;;;3.08;;
48215;SDS011;34005;48.844;10.098;2023-03-12T06:14:21;5.07;;;2.85;;
48215;SDS011;34005;48.844;10.098;2023-03-12T06:16:49;5.45;;;3.15;;
48215;SDS011;34005;48.844;10.098;2023-03-12T06:19:21;3.30;;;2.60;;
48215;SDS011;34005;48.844;10.098;2023-03-12T06:21:49;4.65;;;3.10;;
48215;SDS011;34005;48.844;10.098;2023-03-12T06:24:19;4.90;;;3.10;;
48215;SDS011;34005;48.844;10.098;2023-03-12T06:26:55;6.35;;;3.25;;
48215;SDS011;34005;48.844;10.098;2023-03-12T06:29:43;5.95;;;3.03;;
48215;SDS011;34005;48.844;10.098;2023-03-12T06:32:14;4.07;;;2.70;;
48215;SDS011;34005;48.844;10.098;2023-03-12T06:34:45;4.97;;;3.13;;
48215;SDS011;34005;48.844;10.098;2023-03-12T06:37:13;4.28;;;2.97;;
48215;SDS011;34005;48.844;10.098;2023-03-12T06:39:46;3.38;;;2.90;;
48215;SDS011;34005;48.844;10.098;2023-03-12T06:42:17;8.05;;;4.95;;
48215;SDS011;34005;48.844;10.098;2023-03-12T06:44:46;5.57;;;3.45;;
48215;SDS011;34005;48.844;10.098;2023-03-12T06:47:14;8.90;;;3.47;;
48215;SDS011;34005;48.844;10.098;2023-03-12T06:49:55;6.78;;;3.92;;
48215;SDS011;34005;48.844;10.098;2023-03-12T06:52:24;5.60;;;3.45;;
48215;SDS011;34005;48.844;10.098;2023-03-12T06:55:06;9.27;;;5.00;;
48215;SDS011;34005;48.844;10.098;2023-03-12T06:58:02;8.55;;;4.38;;
48215;SDS011;34005;48.844;10.098;2023-03-12T07:00:40;6.55;;;3.90;;
48215;SDS011;34005;48.844;10.098;2023-03-12T07:08:24;6.85;;;3.35;;
48215;SDS011;34005;48.844;10.098;2023-03-12T07:11:01;4.22;;;2.83;;
48215;SDS011;34005;48.844;10.098;2023-03-12T07:13:29;6.28;;;3.38;;
48215;SDS011;34005;48.844;10.098;2023-03-12T07:16:03;5.85;;;3.05;;
48215;SDS011;34005;48.844;10.098;2023-03-12T07:18:31;8.77;;;3.45;;
48215;SDS011;34005;48.844;10.098;2023-03-12T07:21:02;6.22;;;3.17;;
48215;SDS011;34005;48.844;10.098;2023-03-12T07:23:49;5.57;;;2.72;;
48215;SDS011;34005;48.844;10.098;2023-03-12T07:26:20;5.57;;;3.50;;
48215;SDS011;34005;48.844;10.098;2023-03-12T07:28:48;5.07;;;3.17;;
48215;SDS011;34005;48.844;10.098;2023-03-12T07:31:26;7.70;;;3.53;;
48215;SDS011;34005;48.844;10.098;2023-03-12T07:34:01;6.05;;;3.53;;
48215;SDS011;34005;48.844;10.098;2023-03-12T07:36:31;5.70;;;3.58;;
48215;SDS011;34005;48.844;10.098;2023-03-12T07:39:00;8.07;;;4.13;;
48215;SDS011;34005;48.844;10.098;2023-03-12T07:41:29;8.18;;;4.10;;
48215;SDS011;34005;48.844;10.098;2023-03-12T07:43:58;4.78;;;3.72;;
48215;SDS011;34005;48.844;10.098;2023-03-12T07:46:25;6.05;;;3.38;;
48215;SDS011;34005;48.844;10.098;2023-03-12T07:48:53;6.80;;;4.00;;
48215;SDS011;34005;48.844;10.098;2023-03-12T07:51:21;9.40;;;4.38;;
48215;SDS011;34005;48.844;10.098;2023-03-12T07:53:54;6.47;;;4.17;;
48215;SDS011;34005;48.844;10.098;2023-03-12T07:56:22;6.70;;;4.28;;
48215;SDS011;34005;48.844;10.098;2023-03-12T07:58:51;6.25;;;4.65;;
48215;SDS011;34005;48.844;10.098;2023-03-12T08:01:22;9.15;;;4.75;;
48215;SDS011;34005;48.844;10.098;2023-03-12T08:03:57;7.88;;;5.15;;
48215;SDS011;34005;48.844;10.098;2023-03-12T08:06:26;6.53;;;4.65;;
48215;SDS011;34005;48.844;10.098;2023-03-12T08:08:54;8.20;;;5.18;;
48215;SDS011;34005;48.844;10.098;2023-03-12T08:11:25;8.65;;;4.97;;
48215;SDS011;34005;48.844;10.098;2023-03-12T08:14:02;8.38;;;6.18;;
48215;SDS011;34005;48.844;10.098;2023-03-12T08:16:40;7.93;;;5.30;;
48215;SDS011;34005;48.844;10.098;2023-03-12T08:19:12;8.93;;;6.30;;
48215;SDS011;34005;48.844;10.098;2023-03-12T08:21:47;8.88;;;5.68;;
48215;SDS011;34005;48.844;10.098;2023-03-12T08:24:18;9.23;;;5.30;;
48215;SDS011;34005;48.844;10.098;2023-03-12T08:26:47;8.40;;;5.25;;
48215;SDS011;34005;48.844;10.098;2023-03-12T08:29:17;11.15;;;5.38;;
48215;SDS011;34005;48.844;10.098;2023-03-12T08:31:45;8.02;;;5.03;;
48215;SDS011;34005;48.844;10.098;2023-03-12T08:34:29;10.60;;;6.05;;
48215;SDS011;34005;48.844;10.098;2023-03-12T08:36:57;5.93;;;4.57;;
48215;SDS011;34005;48.844;10.098;2023-03-12T08:39:25;8.15;;;4.60;;
48215;SDS011;34005;48.844;10.098;2023-03-12T08:41:52;8.50;;;5.07;;
48215;SDS011;34005;48.844;10.098;2023-03-12T08:44:22;7.05;;;4.95;;
48215;SDS011;34005;48.844;10.098;2023-03-12T08:46:51;11.07;;;5.90;;
48215;SDS011;34005;48.844;10.098;2023-03-12T08:49:24;11.10;;;6.70;;
48215;SDS011;34005;48.844;10.098;2023-03-12T08:52:08;11.65;;;7.80;;
48215;SDS011;34005;48.844;10.098;2023-03-12T08:54:36;12.15;;;8.57;;
48215;SDS011;34005;48.844;10.098;2023-03-12T08:57:07;12.18;;;8.43;;
48215;SDS011;34005;48.844;10.098;2023-03-12T08:59:48;12.25;;;8.80;;
48215;SDS011;34005;48.844;10.098;2023-03-12T09:02:35;14.10;;;8.82;;
48215;SDS011;34005;48.844;10.098;2023-03-12T09:05:10;14.07;;;9.43;;
48215;SDS011;34005;48.844;10.098;2023-03-12T09:08:15;16.27;;;9.90;;
48215;SDS011;34005;48.844;10.098;2023-03-12T09:11:24;13.88;;;8.52;;
48215;SDS011;34005;48.844;10.098;2023-03-12T09:20:51;12.65;;;7.90;;
48215;SDS011;34005;48.844;10.098;2023-03-12T09:25:48;11.23;;;7.85;;
48215;SDS011;34005;48.844;10.098;2023-03-12T09:28:45;13.02;;;8.73;;
48215;SDS011;34005;48.844;10.098;2023-03-12T09:31:48;12.95;;;8.85;;
48215;SDS011;34005;48.844;10.098;2023-03-12T09:34:51;14.98;;;9.93;;
48215;SDS011;34005;48.844;10.098;2023-03-12T09:41:10;15.68;;;8.40;;
48215;SDS011;34005;48.844;10.098;2023-03-12T09:43:53;13.93;;;9.88;;
48215;SDS011;34005;48.844;10.098;2023-03-12T09:46:45;12.57;;;8.63;;
48215;SDS011;34005;48.844;10.098;2023-03-12T09:49:46;15.95;;;10.10;;
48215;SDS011;34005;48.844;10.098;2023-03-12T10:29:16;13.93;;;9.73;;
48215;SDS011;34005;48.844;10.098;2023-03-12T10:31:48;17.92;;;10.55;;
48215;SDS011;34005;48.844;10.098;2023-03-12T10:34:22;13.25;;;9.35;;
48215;SDS011;34005;48.844;10.098;2023-03-12T10:36:56;13.27;;;9.80;;
48215;SDS011;34005;48.844;10.098;2023-03-12T10:39:26;16.95;;;11.23;;
48215;SDS011;34005;48.844;10.098;2023-03-12T10:41:54;15.70;;;11.55;;
48215;SDS011;34005;48.844;10.098;2023-03-12T10:44:27;16.17;;;10.30;;
48215;SDS011;34005;48.844;10.098;2023-03-12T10:47:00;14.10;;;10.40;;
48215;SDS011;34005;48.844;10.098;2023-03-12T10:49:33;16.27;;;10.93;;
48215;SDS011;34005;48.844;10.098;2023-03-12T10:52:03;16.63;;;11.48;;
48215;SDS011;34005;48.844;10.098;2023-03-12T10:54:34;17.10;;;12.15;;
48215;SDS011;34005;48.844;10.098;2023-03-12T10:57:02;18.42;;;10.70;;
48215;SDS011;34005;48.844;10.098;2023-03-12T10:59:32;14.98;;;11.27;;
48215;SDS011;34005;48.844;10.098;2023-03-12T11:02:02;16.73;;;10.70;;
48215;SDS011;34005;48.844;10.098;2023-03-12T11:04:51;13.77;;;10.18;;
48215;SDS011;34005;48.844;10.098;2023-03-12T11:07:22;14.77;;;10.57;;
48215;SDS011;34005;48.844;10.098;2023-03-12T11:12:51;14.30;;;10.45;;
48215;SDS011;34005;48.844;10.098;2023-03-12T11:15:23;17.50;;;9.80;;
48215;SDS011;34005;48.844;10.098;2023-03-12T11:18:04;14.57;;;10.15;;
48215;SDS011;34005;48.844;10.098;2023-03-12T11:20:46;12.97;;;8.80;;
48215;SDS011;34005;48.844;10.098;2023-03-12T11:23:15;12.75;;;8.60;;
48215;SDS011;34005;48.844;10.098;2023-03-12T11:25:49;13.40;;;8.23;;
48215;SDS011;34005;48.844;10.098;2023-03-12T11:28:23;11.68;;;7.15;;
48215;SDS011;34005;48.844;10.098;2023-03-12T11:30:55;9.93;;;5.83;;
48215;SDS011;34005;48.844;10.098;2023-03-12T11:33:24;10.10;;;5.72;;
48215;SDS011;34005;48.844;10.098;2023-03-12T11:35:57;6.85;;;5.00;;
48215;SDS011;34005;48.844;10.098;2023-03-12T11:38:36;6.87;;;4.57;;
48215;SDS011;34005;48.844;10.098;2023-03-12T11:41:10;6.95;;;4.78;;
48215;SDS011;34005;48.844;10.098;2023-03-12T11:43:53;5.15;;;4.28;;
48215;SDS011;34005;48.844;10.098;2023-03-12T11:46:38;5.60;;;4.28;;
48215;SDS011;34005;48.844;10.098;2023-03-12T11:49:20;5.85;;;4.97;;
48215;SDS011;34005;48.844;10.098;2023-03-12T11:52:00;6.30;;;5.32;;
48215;SDS011;34005;48.844;10.098;2023-03-12T11:54:43;5.22;;;4.60;;
48215;SDS011;34005;48.844;10.098;2023-03-12T11:57:27;5.85;;;4.40;;
48215;SDS011;34005;48.844;10.098;2023-03-12T12:00:05;6.13;;;5.35;;
48215;SDS011;34005;48.844;10.098;2023-03-12T12:02:51;4.70;;;3.75;;
48215;SDS011;34005;48.844;10.098;2023-03-12T12:05:37;6.38;;;4.75;;
48215;SDS011;34005;48.844;10.098;2023-03-12T12:08:18;9.18;;;4.80;;
48215;SDS011;34005;48.844;10.098;2023-03-12T12:10:59;8.10;;;5.32;;
48215;SDS011;34005;48.844;10.098;2023-03-12T12:13:33;5.47;;;4.18;;
48215;SDS011;34005;48.844;10.098;2023-03-12T12:16:13;5.30;;;4.43;;
48215;SDS011;34005;48.844;10.098;2023-03-12T12:18:54;6.78;;;4.38;;
48215;SDS011;34005;48.844;10.098;2023-03-12T12:21:35;5.47;;;4.97;;
48215;SDS011;34005;48.844;10.098;2023-03-12T12:24:23;5.22;;;4.25;;
48215;SDS011;34005;48.844;10.098;2023-03-12T12:27:02;5.05;;;4.43;;
48215;SDS011;34005;48.844;10.098;2023-03-12T12:29:56;7.45;;;4.28;;
48215;SDS011;34005;48.844;10.098;2023-03-12T12:32:41;5.32;;;4.82;;
48215;SDS011;34005;48.844;10.098;2023-03-12T12:35:28;4.13;;;3.78;;
48215;SDS011;34005;48.844;10.098;2023-03-12T12:38:02;4.72;;;4.22;;
48215;SDS011;34005;48.844;10.098;2023-03-12T12:40:36;4.90;;;4.38;;
48215;SDS011;34005;48.844;10.098;2023-03-12T12:45:54;7.30;;;5.10;;
48215;SDS011;34005;48.844;10.098;2023-03-12T12:48:26;3.88;;;3.53;;
48215;SDS011;34005;48.844;10.098;2023-03-12T12:50:59;9.25;;;4.38;;
48215;SDS011;34005;48.844;10.098;2023-03-12T12:53:29;4.38;;;3.78;;
48215;SDS011;34005;48.844;10.098;2023-03-12T12:56:09;5.60;;;3.60;;
48215;SDS011;34005;48.844;10.098;2023-03-12T12:58:49;4.50;;;3.47;;
48215;SDS011;34005;48.844;10.098;2023-03-12T13:01:29;4.60;;;3.22;;
48215;SDS011;34005;48.844;10.098;2023-03-12T13:03:59;4.22;;;3.63;;
48215;SDS011;34005;48.844;10.098;2023-03-12T13:09:34;5.57;;;3.22;;
48215;SDS011;34005;48.844;10.098;2023-03-12T13:14:53;5.53;;;2.92;;
48215;SDS011;34005;48.844;10.098;2023-03-12T13:17:24;5.65;;;2.65;;
48215;SDS011;34005;48.844;10.098;2023-03-12T13:20:06;5.97;;;3.10;;
48215;SDS011;34005;48.844;10.098;2023-03-12T13:22:47;4.72;;;3.05;;
48215;SDS011;34005;48.844;10.098;2023-03-12T13:25:37;6.07;;;3.38;;
48215;SDS011;34005;48.844;10.098;2023-03-12T13:28:29;3.47;;;2.78;;
48215;SDS011;34005;48.844;10.098;2023-03-12T13:31:01;3.15;;;2.00;;
48215;SDS011;34005;48.844;10.098;2023-03-12T13:33:52;3.65;;;2.03;;
48215;SDS011;34005;48.844;10.098;2023-03-12T13:36:22;3.35;;;2.10;;
48215;SDS011;34005;48.844;10.098;2023-03-12T13:38:58;2.10;;;1.90;;
48215;SDS011;34005;48.844;10.098;2023-03-12T13:41:31;2.63;;;1.60;;
48215;SDS011;34005;48.844;10.098;2023-03-12T13:46:58;3.40;;;1.67;;
48215;SDS011;34005;48.844;10.098;2023-03-12T13:49:28;3.33;;;1.60;;
48215;SDS011;34005;48.844;10.098;2023-03-12T13:52:17;3.17;;;1.52;;
48215;SDS011;34005;48.844;10.098;2023-03-12T13:54:55;3.60;;;2.00;;
48215;SDS011;34005;48.844;10.098;2023-03-12T13:57:35;2.58;;;1.60;;
48215;SDS011;34005;48.844;10.098;2023-03-12T14:00:10;3.25;;;1.27;;
48215;SDS011;34005;48.844;10.098;2023-03-12T14:02:44;2.40;;;1.55;;
48215;SDS011;34005;48.844;10.098;2023-03-12T14:05:15;2.38;;;1.38;;
48215;SDS011;34005;48.844;10.098;2023-03-12T14:07:51;2.53;;;1.38;;
48215;SDS011;34005;48.844;10.098;2023-03-12T14:10:33;2.53;;;1.63;;
48215;SDS011;34005;48.844;10.098;2023-03-12T14:13:15;3.60;;;1.95;;
48215;SDS011;34005;48.844;10.098;2023-03-12T14:15:55;3.15;;;1.52;;
48215;SDS011;34005;48.844;10.098;2023-03-12T14:18:32;3.42;;;0.98;;
48215;SDS011;34005;48.844;10.098;2023-03-12T14:21:06;5.00;;;1.75;;
48215;SDS011;34005;48.844;10.098;2023-03-12T14:23:36;2.75;;;1.20;;
48215;SDS011;34005;48.844;10.098;2023-03-12T14:26:12;2.38;;;1.35;;
48215;SDS011;34005;48.844;10.098;2023-03-12T14:28:51;4.15;;;1.20;;
48215;SDS011;34005;48.844;10.098;2023-03-12T14:31:23;5.03;;;1.50;;
48215;SDS011;34005;48.844;10.098;2023-03-12T14:33:54;2.33;;;1.38;;
48215;SDS011;34005;48.844;10.098;2023-03-12T14:38:56;2.88;;;1.23;;
48215;SDS011;34005;48.844;10.098;2023-03-12T14:41:28;4.28;;;1.38;;
48215;SDS011;34005;48.844;10.098;2023-03-12T14:44:02;4.57;;;1.30;;
48215;SDS011;34005;48.844;10.098;2023-03-12T14:46:31;2.95;;;1.02;;
48215;SDS011;34005;48.844;10.098;2023-03-12T14:48:59;2.83;;;1.20;;
48215;SDS011;34005;48.844;10.098;2023-03-12T14:51:27;3.67;;;1.20;;
48215;SDS011;34005;48.844;10.098;2023-03-12T14:54:01;4.72;;;1.25;;
48215;SDS011;34005;48.844;10.098;2023-03-12T14:56:32;5.07;;;1.42;;
48215;SDS011;34005;48.844;10.098;2023-03-12T14:59:03;2.38;;;1.05;;
48215;SDS011;34005;48.844;10.098;2023-03-12T15:01:47;2.45;;;1.08;;
48215;SDS011;34005;48.844;10.098;2023-03-12T15:04:16;2.63;;;1.30;;
48215;SDS011;34005;48.844;10.098;2023-03-12T15:06:46;5.65;;;1.65;;
48215;SDS011;34005;48.844;10.098;2023-03-12T15:09:16;2.42;;;1.38;;
48215;SDS011;34005;48.844;10.098;2023-03-12T15:11:51;4.38;;;1.45;;
48215;SDS011;34005;48.844;10.098;2023-03-12T15:14:21;2.00;;;1.50;;
48215;SDS011;34005;48.844;10.098;2023-03-12T15:16:51;3.05;;;1.88;;
48215;SDS011;34005;48.844;10.098;2023-03-12T15:19:19;3.20;;;1.90;;
48215;SDS011;34005;48.844;10.098;2023-03-12T15:21:49;5.53;;;1.88;;
48215;SDS011;34005;48.844;10.098;2023-03-12T15:24:17;4.57;;;2.10;;
48215;SDS011;34005;48.844;10.098;2023-03-12T15:26:44;7.22;;;2.83;;
48215;SDS011;34005;48.844;10.098;2023-03-12T15:29:20;4.85;;;2.05;;
48215;SDS011;34005;48.844;10.098;2023-03-12T15:31:53;6.50;;;2.38;;
48215;SDS011;34005;48.844;10.098;2023-03-12T15:34:27;7.50;;;2.85;;
48215;SDS011;34005;48.844;10.098;2023-03-12T15:36:57;4.47;;;1.98;;
48215;SDS011;34005;48.844;10.098;2023-03-12T15:39:27;4.32;;;2.13;;
48215;SDS011;34005;48.844;10.098;2023-03-12T15:41:59;4.93;;;1.98;;
48215;SDS011;34005;48.844;10.098;2023-03-12T15:44:30;5.03;;;1.98;;
48215;SDS011;34005;48.844;10.098;2023-03-12T15:47:09;2.60;;;1.30;;
48215;SDS011;34005;48.844;10.098;2023-03-12T15:49:40;2.08;;;1.10;;
48215;SDS011;34005;48.844;10.098;2023-03-12T15:52:23;5.65;;;1.98;;
48215;SDS011;34005;48.844;10.098;2023-03-12T15:55:01;2.95;;;1.10;;
48215;SDS011;34005;48.844;10.098;2023-03-12T15:57:46;2.25;;;1.23;;
48215;SDS011;34005;48.844;10.098;2023-03-12T16:00:18;5.72;;;1.80;;
48215;SDS011;34005;48.844;10.098;2023-03-12T16:02:52;4.70;;;1.50;;
48215;SDS011;34005;48.844;10.098;2023-03-12T16:05:23;3.47;;;1.55;;
48215;SDS011;34005;48.844;10.098;2023-03-12T16:07:53;1.75;;;1.20;;
48215;SDS011;34005;48.844;10.098;2023-03-12T16:10:21;4.03;;;1.55;;
48215;SDS011;34005;48.844;10.098;2023-03-12T16:12:56;4.07;;;1.88;;
48215;SDS011;34005;48.844;10.098;2023-03-12T16:15:30;4.40;;;2.03;;
48215;SDS011;34005;48.844;10.098;2023-03-12T16:17:59;2.97;;;1.20;;